Time;durP1;ratioP1;P1;durP2;ratioP2;P2;SDS_P1;SDS_P2;PMS_P1;PMS_P2;Temp;Humidity;BMP_temperature;BMP_pressure;BME280_temperature;BME280_humidity;BME280_pressure;Samples;Min_cycle;Max_cycle;Signal;HPM_P1;HPM_P2
2022/11/30 00:02:23;;;;;;;44.78;18.83;;;;;;;;;;4918839;29;20164;-82
2022/11/30 00:04:48;;;;;;;38.58;17.70;;;;;;;;;;4919709;29;20507;-83
2022/11/30 00:07:14;;;;;;;37.22;17.20;;;;;;;;;;4919957;29;20040;-83
2022/11/30 00:09:39;;;;;;;37.20;17.58;;;;;;;;;;4919183;29;20036;-83
2022/11/30 00:12:05;;;;;;;39.90;18.17;;;;;;;;;;4920371;29;20036;-83
2022/11/30 00:14:31;;;;;;;38.85;17.90;;;;;;;;;;4918814;29;20437;-83
2022/11/30 00:16:56;;;;;;;42.75;17.88;;;;;;;;;;4919153;29;20021;-84
2022/11/30 00:19:21;;;;;;;37.53;17.17;;;;;;;;;;4919018;29;20036;-83
2022/11/30 00:21:48;;;;;;;42.17;17.83;;;;;;;;;;4904374;29;20115;-83
2022/11/30 00:24:13;;;;;;;39.67;17.42;;;;;;;;;;4905196;29;20091;-83
2022/11/30 00:26:39;;;;;;;36.63;17.05;;;;;;;;;;4922139;29;20452;-83
2022/11/30 00:29:04;;;;;;;36.83;17.25;;;;;;;;;;4922243;29;20047;-83
2022/11/30 00:31:30;;;;;;;41.78;17.52;;;;;;;;;;4922584;29;20119;-83
2022/11/30 00:33:55;;;;;;;39.97;18.20;;;;;;;;;;4922841;29;20420;-81
2022/11/30 00:36:21;;;;;;;45.58;18.40;;;;;;;;;;4921865;29;20028;-83
2022/11/30 00:38:48;;;;;;;41.63;17.73;;;;;;;;;;4921651;29;20398;-82
2022/11/30 00:41:14;;;;;;;42.22;17.45;;;;;;;;;;4904777;29;20067;-83
2022/11/30 00:43:39;;;;;;;44.58;18.23;;;;;;;;;;4922474;29;20122;-83
2022/11/30 00:46:07;;;;;;;43.78;17.88;;;;;;;;;;4921634;29;20032;-83
2022/11/30 00:48:33;;;;;;;36.97;17.70;;;;;;;;;;4922573;29;20087;-83
2022/11/30 00:50:59;;;;;;;39.17;17.58;;;;;;;;;;4904489;29;20151;-83
2022/11/30 00:53:24;;;;;;;41.13;18.25;;;;;;;;;;4904705;29;20032;-83
2022/11/30 00:55:50;;;;;;;42.15;17.80;;;;;;;;;;4921502;29;20046;-83
2022/11/30 00:58:16;;;;;;;43.72;19.45;;;;;;;;;;4889327;29;20103;-83
2022/11/30 01:00:41;;;;;;;50.78;20.90;;;;;;;;;;4921940;29;20044;-83
2022/11/30 01:03:07;;;;;;;47.92;20.27;;;;;;;;;;4922362;29;20115;-84
2022/11/30 01:05:33;;;;;;;49.08;20.75;;;;;;;;;;4921265;29;20497;-83
2022/11/30 01:08:00;;;;;;;46.83;20.40;;;;;;;;;;4922462;29;20044;-83
2022/11/30 01:10:25;;;;;;;47.83;20.77;;;;;;;;;;4921341;29;20039;-83
2022/11/30 01:12:51;;;;;;;49.72;20.33;;;;;;;;;;4921427;29;20095;-83
2022/11/30 01:15:16;;;;;;;43.22;18.98;;;;;;;;;;4921022;29;20130;-82
2022/11/30 01:17:42;;;;;;;45.25;19.42;;;;;;;;;;4920262;29;20036;-83
2022/11/30 01:20:08;;;;;;;48.65;19.92;;;;;;;;;;4904259;29;20044;-83
2022/11/30 01:22:34;;;;;;;45.50;19.75;;;;;;;;;;4921328;29;20069;-83
2022/11/30 01:24:59;;;;;;;44.85;19.80;;;;;;;;;;4920928;29;20127;-83
2022/11/30 01:27:25;;;;;;;44.55;19.10;;;;;;;;;;4903372;29;20068;-83
2022/11/30 01:29:50;;;;;;;49.53;19.85;;;;;;;;;;4904110;29;20109;-83
2022/11/30 01:32:16;;;;;;;47.47;19.75;;;;;;;;;;4919910;29;20450;-82
2022/11/30 01:34:41;;;;;;;45.08;20.52;;;;;;;;;;4920931;29;20040;-84
2022/11/30 01:37:07;;;;;;;46.28;19.75;;;;;;;;;;4903701;29;20028;-84
2022/11/30 01:39:33;;;;;;;42.60;19.45;;;;;;;;;;4920739;29;20039;-84
2022/11/30 01:41:58;;;;;;;46.83;19.75;;;;;;;;;;4920851;29;20036;-83
2022/11/30 01:44:27;;;;;;;46.88;19.90;;;;;;;;;;4904073;29;20036;-83
2022/11/30 01:47:06;;;;;;;45.28;19.02;;;;;;;;;;4920268;29;20036;-83
2022/11/30 01:49:36;;;;;;;49.53;19.88;;;;;;;;;;4920326;29;20043;-84
2022/11/30 01:52:06;;;;;;;46.38;19.98;;;;;;;;;;4920726;29;20036;-83
2022/11/30 01:54:39;;;;;;;47.97;21.45;;;;;;;;;;4903198;29;20043;-83
2022/11/30 01:57:10;;;;;;;;;;;;;;;;;;4921553;29;20039;-81
2022/11/30 01:59:35;;;;;;;44.17;19.60;;;;;;;;;;4921005;29;19915;-83
2022/11/30 02:02:01;;;;;;;51.65;20.40;;;;;;;;;;4920555;29;20108;-84
2022/11/30 02:04:31;;;;;;;50.17;20.63;;;;;;;;;;4920435;29;20168;-83
2022/11/30 02:06:58;;;;;;;51.22;21.48;;;;;;;;;;4903252;29;20044;-84
2022/11/30 02:09:25;;;;;;;53.55;21.48;;;;;;;;;;4920509;29;20071;-84
2022/11/30 02:11:51;;;;;;;55.33;22.83;;;;;;;;;;4920197;29;20035;-84
2022/11/30 02:14:23;;;;;;;54.58;22.95;;;;;;;;;;4919326;29;20040;-82
2022/11/30 02:16:55;;;;;;;58.60;22.92;;;;;;;;;;4903618;29;20056;-83
2022/11/30 02:19:53;;;;;;;54.67;22.05;;;;;;;;;;4903412;29;20438;-83
2022/11/30 02:22:24;;;;;;;53.95;22.10;;;;;;;;;;4919774;29;20036;-83
2022/11/30 02:25:15;;;;;;;62.33;23.85;;;;;;;;;;4902506;29;20040;-83
2022/11/30 02:27:59;;;;;;;59.60;21.92;;;;;;;;;;4920618;29;20044;-83
2022/11/30 02:30:25;;;;;;;68.50;23.05;;;;;;;;;;4919853;29;20039;-83
2022/11/30 02:32:59;;;;;;;67.22;23.50;;;;;;;;;;4903145;29;20083;-83
2022/11/30 02:35:29;;;;;;;61.70;22.50;;;;;;;;;;4919863;29;20036;-83
2022/11/30 02:37:56;;;;;;;61.95;22.13;;;;;;;;;;4902607;29;20102;-83
2022/11/30 02:40:22;;;;;;;55.78;21.33;;;;;;;;;;4919935;29;20481;-83
2022/11/30 02:42:51;;;;;;;57.20;23.50;;;;;;;;;;4919801;29;20040;-83
2022/11/30 02:45:23;;;;;;;59.67;23.45;;;;;;;;;;4901953;29;20044;-83
2022/11/30 02:47:56;;;;;;;51.60;21.75;;;;;;;;;;4903046;29;20036;-83
2022/11/30 02:50:56;;;;;;;61.03;23.35;;;;;;;;;;4918505;29;20127;-83
2022/11/30 02:53:22;;;;;;;61.25;23.42;;;;;;;;;;4920604;29;20398;-84
2022/11/30 02:55:47;;;;;;;63.15;23.50;;;;;;;;;;4902238;29;20102;-84
2022/11/30 02:58:15;;;;;;;64.07;24.45;;;;;;;;;;4919650;29;20055;-83
2022/11/30 03:00:41;;;;;;;58.08;23.20;;;;;;;;;;4902256;29;20482;-84
2022/11/30 03:03:06;;;;;;;66.13;23.50;;;;;;;;;;4919857;29;20044;-84
2022/11/30 03:05:32;;;;;;;58.55;22.80;;;;;;;;;;4919167;29;20111;-84
2022/11/30 03:07:58;;;;;;;63.28;24.25;;;;;;;;;;4919307;29;20043;-83
2022/11/30 03:10:24;;;;;;;58.30;22.58;;;;;;;;;;4919318;29;20032;-83
2022/11/30 03:12:50;;;;;;;63.75;23.58;;;;;;;;;;4902631;29;20501;-82
2022/11/30 03:15:15;;;;;;;56.38;22.38;;;;;;;;;;4902590;29;20043;-83
2022/11/30 03:17:41;;;;;;;56.58;22.30;;;;;;;;;;4919398;29;20044;-83
2022/11/30 03:20:07;;;;;;;56.40;22.40;;;;;;;;;;4903803;29;20047;-83
2022/11/30 03:22:32;;;;;;;61.50;24.70;;;;;;;;;;4903776;29;20044;-84
2022/11/30 03:24:58;;;;;;;59.28;24.55;;;;;;;;;;4902178;29;20040;-83
2022/11/30 03:27:23;;;;;;;59.58;25.27;;;;;;;;;;4919646;29;20051;-84
2022/11/30 03:29:49;;;;;;;53.53;22.95;;;;;;;;;;4919638;29;20063;-83
2022/11/30 03:32:14;;;;;;;52.15;21.60;;;;;;;;;;4919555;29;20043;-83
2022/11/30 03:34:40;;;;;;;57.22;23.55;;;;;;;;;;4919330;29;20387;-84
2022/11/30 03:37:05;;;;;;;52.30;22.48;;;;;;;;;;4919567;29;20028;-83
2022/11/30 03:39:31;;;;;;;54.60;23.45;;;;;;;;;;4919629;29;20044;-84
2022/11/30 03:41:56;;;;;;;52.38;20.92;;;;;;;;;;4919169;29;20036;-83
2022/11/30 03:44:22;;;;;;;56.30;23.65;;;;;;;;;;4919349;29;20050;-83
2022/11/30 03:46:47;;;;;;;52.15;22.60;;;;;;;;;;4902298;29;20032;-83
2022/11/30 03:49:13;;;;;;;53.05;22.00;;;;;;;;;;4919758;29;20032;-83
2022/11/30 03:51:38;;;;;;;60.20;23.67;;;;;;;;;;4919267;29;20031;-84
2022/11/30 03:54:04;;;;;;;53.95;22.35;;;;;;;;;;4919599;29;20052;-83
2022/11/30 03:56:29;;;;;;;58.08;22.85;;;;;;;;;;4921310;29;20020;-83
2022/11/30 03:58:55;;;;;;;56.47;22.67;;;;;;;;;;4922468;29;20705;-83
2022/11/30 04:01:22;;;;;;;59.30;24.17;;;;;;;;;;4922903;29;20035;-83
2022/11/30 04:03:49;;;;;;;59.40;24.38;;;;;;;;;;4922602;29;20040;-83
2022/11/30 04:06:14;;;;;;;59.85;23.15;;;;;;;;;;4923027;29;20036;-83
2022/11/30 04:08:40;;;;;;;58.10;24.08;;;;;;;;;;4940615;29;20071;-83
2022/11/30 04:11:06;;;;;;;56.22;22.67;;;;;;;;;;4941558;29;20051;-84
2022/11/30 04:13:32;;;;;;;59.88;24.27;;;;;;;;;;4941879;29;20050;-84
2022/11/30 04:15:58;;;;;;;58.92;22.63;;;;;;;;;;4940598;29;20114;-83
2022/11/30 04:18:26;;;;;;;54.65;23.88;;;;;;;;;;4924435;29;20492;-84
2022/11/30 04:20:53;;;;;;;55.75;22.80;;;;;;;;;;4941053;29;20062;-83
2022/11/30 04:23:19;;;;;;;53.80;23.00;;;;;;;;;;4941797;29;20063;-84
2022/11/30 04:25:46;;;;;;;46.13;20.90;;;;;;;;;;4923784;29;20053;-83
2022/11/30 04:28:14;;;;;;;58.00;23.70;;;;;;;;;;4941541;29;20122;-84
2022/11/30 04:30:40;;;;;;;55.10;23.65;;;;;;;;;;4924138;29;20091;-83
2022/11/30 04:33:05;;;;;;;58.38;23.65;;;;;;;;;;4941180;29;20020;-82
2022/11/30 04:35:31;;;;;;;56.30;23.15;;;;;;;;;;4940894;29;20032;-82
2022/11/30 04:37:57;;;;;;;55.35;23.90;;;;;;;;;;4941751;29;20560;-83
2022/11/30 04:40:23;;;;;;;60.40;24.63;;;;;;;;;;4924169;29;20070;-83
2022/11/30 04:42:48;;;;;;;56.00;23.40;;;;;;;;;;4941569;29;20513;-82
2022/11/30 04:45:14;;;;;;;56.72;23.50;;;;;;;;;;4940983;29;20118;-84
2022/11/30 04:47:39;;;;;;;60.90;23.95;;;;;;;;;;4923827;29;20036;-85
2022/11/30 04:50:06;;;;;;;64.93;23.75;;;;;;;;;;4907951;29;20046;-84
2022/11/30 04:52:32;;;;;;;57.88;24.13;;;;;;;;;;4923389;29;20493;-83
2022/11/30 04:54:58;;;;;;;57.28;23.48;;;;;;;;;;4941458;29;20063;-83
2022/11/30 04:57:23;;;;;;;50.78;21.63;;;;;;;;;;4923101;29;20561;-83
2022/11/30 04:59:49;;;;;;;55.33;23.80;;;;;;;;;;4940741;29;20050;-83
2022/11/30 05:02:14;;;;;;;60.33;24.63;;;;;;;;;;4923022;29;20107;-84
2022/11/30 05:04:40;;;;;;;55.97;23.70;;;;;;;;;;4941038;29;20032;-84
2022/11/30 05:07:06;;;;;;;56.83;23.30;;;;;;;;;;4923963;29;20039;-84
2022/11/30 05:09:31;;;;;;;56.80;23.15;;;;;;;;;;4940021;29;20035;-83
2022/11/30 05:11:57;;;;;;;55.25;23.30;;;;;;;;;;4940987;29;20040;-83
2022/11/30 05:14:22;;;;;;;55.75;23.38;;;;;;;;;;4940016;29;20040;-83
2022/11/30 05:16:48;;;;;;;55.67;22.65;;;;;;;;;;4941011;29;20114;-83
2022/11/30 05:19:14;;;;;;;57.47;23.58;;;;;;;;;;4940852;29;20043;-83
2022/11/30 05:21:41;;;;;;;57.88;23.35;;;;;;;;;;4940550;29;20036;-84
2022/11/30 05:24:06;;;;;;;61.03;23.52;;;;;;;;;;4923581;29;20039;-83
2022/11/30 05:26:34;;;;;;;54.10;22.65;;;;;;;;;;4940640;29;20031;-83
2022/11/30 05:28:59;;;;;;;58.33;23.70;;;;;;;;;;4941290;29;20127;-83
2022/11/30 05:31:25;;;;;;;52.80;23.00;;;;;;;;;;4923551;29;20063;-83
2022/11/30 05:33:51;;;;;;;52.72;22.85;;;;;;;;;;4940492;29;20445;-83
2022/11/30 05:36:17;;;;;;;57.58;22.55;;;;;;;;;;4923353;29;20035;-84
2022/11/30 05:38:43;;;;;;;52.75;22.58;;;;;;;;;;4940259;29;20031;-84
2022/11/30 05:41:08;;;;;;;54.10;22.77;;;;;;;;;;4923269;29;20039;-84
2022/11/30 05:43:34;;;;;;;56.85;23.15;;;;;;;;;;4939967;29;20043;-83
2022/11/30 05:46:01;;;;;;;56.53;23.27;;;;;;;;;;4923080;29;20046;-83
2022/11/30 05:48:27;;;;;;;57.53;23.23;;;;;;;;;;4940435;29;20178;-84
2022/11/30 05:50:53;;;;;;;58.20;24.35;;;;;;;;;;4940302;29;20043;-84
2022/11/30 05:53:18;;;;;;;58.28;22.77;;;;;;;;;;4940196;29;20035;-84
2022/11/30 05:55:44;;;;;;;53.55;21.77;;;;;;;;;;4940266;29;20043;-83
2022/11/30 05:58:09;;;;;;;59.30;21.98;;;;;;;;;;4940236;29;20050;-83
2022/11/30 06:00:35;;;;;;;58.15;23.13;;;;;;;;;;4940066;29;20669;-83
2022/11/30 06:03:00;;;;;;;54.40;22.63;;;;;;;;;;4923470;29;20039;-83
2022/11/30 06:05:26;;;;;;;58.03;22.88;;;;;;;;;;4939693;29;20032;-83
2022/11/30 06:07:53;;;;;;;51.95;22.35;;;;;;;;;;4940130;29;20489;-83
2022/11/30 06:10:18;;;;;;;52.40;22.02;;;;;;;;;;4939436;29;20035;-83
2022/11/30 06:12:44;;;;;;;51.13;22.92;;;;;;;;;;4946747;23;20517;-82
2022/11/30 06:15:10;;;;;;;57.95;22.55;;;;;;;;;;4901324;29;20505;-82
2022/11/30 06:17:39;;;;;;;56.30;23.55;;;;;;;;;;4920946;29;20207;-83
2022/11/30 06:20:05;;;;;;;68.32;25.10;;;;;;;;;;4919572;29;20048;-83
2022/11/30 06:22:31;;;;;;;60.65;25.02;;;;;;;;;;4920420;29;20173;-83
2022/11/30 06:24:57;;;;;;;60.55;23.02;;;;;;;;;;4919564;29;20493;-82
2022/11/30 06:27:22;;;;;;;56.22;23.42;;;;;;;;;;4887978;29;20043;-84
2022/11/30 06:29:48;;;;;;;54.13;24.25;;;;;;;;;;4920504;29;20104;-83
2022/11/30 06:32:13;;;;;;;63.55;25.00;;;;;;;;;;4902957;29;20478;-82
2022/11/30 06:34:39;;;;;;;55.45;24.50;;;;;;;;;;4887464;29;20091;-83
2022/11/30 06:37:04;;;;;;;57.30;25.13;;;;;;;;;;4919996;29;20512;-81
2022/11/30 06:39:30;;;;;;;64.15;24.88;;;;;;;;;;4902710;29;20111;-82
2022/11/30 06:41:55;;;;;;;66.88;25.17;;;;;;;;;;4919825;29;20040;-84
2022/11/30 06:44:21;;;;;;;56.88;23.95;;;;;;;;;;4902489;29;20188;-82
2022/11/30 06:46:46;;;;;;;61.45;23.23;;;;;;;;;;4902424;29;20044;-81
2022/11/30 06:49:12;;;;;;;64.18;24.92;;;;;;;;;;4902746;29;20502;-82
2022/11/30 06:51:38;;;;;;;59.20;24.65;;;;;;;;;;4919468;29;20048;-83
2022/11/30 06:54:05;;;;;;;59.70;22.55;;;;;;;;;;4919663;29;20032;-83
2022/11/30 06:56:31;;;;;;;63.42;23.77;;;;;;;;;;4901626;29;20035;-82
2022/11/30 06:58:56;;;;;;;55.13;25.27;;;;;;;;;;4902222;29;20131;-82
2022/11/30 07:01:22;;;;;;;61.67;25.50;;;;;;;;;;4886558;29;20035;-83
2022/11/30 07:03:48;;;;;;;62.85;25.60;;;;;;;;;;4919702;29;20043;-82
2022/11/30 07:06:14;;;;;;;66.35;24.23;;;;;;;;;;4901981;29;20054;-82
2022/11/30 07:08:41;;;;;;;62.03;24.45;;;;;;;;;;4920295;29;20066;-83
2022/11/30 07:11:08;;;;;;;64.10;24.05;;;;;;;;;;4919783;29;20064;-81
2022/11/30 07:13:33;;;;;;;52.40;22.65;;;;;;;;;;4920853;29;20044;-81
2022/11/30 07:16:03;;;;;;;56.03;24.10;;;;;;;;;;4903084;29;20039;-83
2022/11/30 07:18:29;;;;;;;58.40;23.55;;;;;;;;;;4920973;29;20063;-80
2022/11/30 07:20:58;;;;;;;55.83;22.42;;;;;;;;;;4903587;29;20047;-83
2022/11/30 07:26:08;;;;;;;59.17;22.65;;;;;;;;;;4919731;29;20044;-80
2022/11/30 07:28:39;;;;;;;55.75;22.75;;;;;;;;;;4919747;29;20048;-82
2022/11/30 07:31:19;;;;;;;63.17;23.63;;;;;;;;;;4904491;29;20063;-82
2022/11/30 07:33:45;;;;;;;63.38;24.00;;;;;;;;;;4891671;29;20516;-81
2022/11/30 07:36:11;;;;;;;60.70;24.60;;;;;;;;;;4924081;29;20028;-83
2022/11/30 07:38:37;;;;;;;59.67;25.10;;;;;;;;;;4921637;29;20645;-82
2022/11/30 07:41:03;;;;;;;55.40;24.10;;;;;;;;;;4889879;29;20127;-81
2022/11/30 07:43:29;;;;;;;63.45;25.55;;;;;;;;;;4906313;29;20485;-81
2022/11/30 07:45:54;;;;;;;58.92;24.20;;;;;;;;;;4922595;29;20152;-82
2022/11/30 07:48:21;;;;;;;57.30;23.88;;;;;;;;;;4922445;29;20156;-82
2022/11/30 07:50:47;;;;;;;62.58;24.50;;;;;;;;;;4922161;29;20409;-81
2022/11/30 07:53:14;;;;;;;55.42;23.00;;;;;;;;;;4905492;29;20059;-81
2022/11/30 07:55:40;;;;;;;57.03;22.88;;;;;;;;;;4921937;29;20040;-82
2022/11/30 07:58:06;;;;;;;62.97;24.42;;;;;;;;;;4922552;29;20040;-83
2022/11/30 08:00:31;;;;;;;62.90;23.48;;;;;;;;;;4922056;29;20040;-81
2022/11/30 08:02:57;;;;;;;55.42;22.90;;;;;;;;;;4922432;29;20044;-81
2022/11/30 08:05:22;;;;;;;53.17;23.20;;;;;;;;;;4890064;29;20039;-83
2022/11/30 08:07:52;;;;;;;59.05;23.65;;;;;;;;;;4920885;29;20120;-84
2022/11/30 08:10:19;;;;;;;55.78;22.77;;;;;;;;;;4922042;29;20055;-84
2022/11/30 08:12:46;;;;;;;57.25;23.67;;;;;;;;;;4921893;29;20096;-84
2022/11/30 08:15:11;;;;;;;54.85;22.55;;;;;;;;;;4922142;29;20046;-84
2022/11/30 08:17:36;;;;;;;62.08;24.20;;;;;;;;;;4921636;29;20040;-81
2022/11/30 08:20:03;;;;;;;61.38;23.98;;;;;;;;;;4921414;29;20074;-83
2022/11/30 08:22:28;;;;;;;58.85;23.58;;;;;;;;;;4904740;29;20601;-83
2022/11/30 08:24:54;;;;;;;55.58;21.92;;;;;;;;;;4905439;29;20721;-81
2022/11/30 08:27:19;;;;;;;58.47;23.58;;;;;;;;;;4905129;29;20494;-83
2022/11/30 08:29:45;;;;;;;65.25;23.30;;;;;;;;;;4905921;29;20071;-83
2022/11/30 08:32:10;;;;;;;53.95;22.48;;;;;;;;;;4921974;29;20032;-83
2022/11/30 08:34:36;;;;;;;61.20;25.65;;;;;;;;;;4921472;29;20056;-81
2022/11/30 08:37:02;;;;;;;61.25;24.33;;;;;;;;;;4921194;29;20068;-81
2022/11/30 08:39:30;;;;;;;67.25;24.73;;;;;;;;;;4921827;29;20490;-83
2022/11/30 08:41:56;;;;;;;60.38;22.33;;;;;;;;;;4921346;29;20044;-83
2022/11/30 08:44:22;;;;;;;58.28;23.05;;;;;;;;;;4905195;29;20068;-82
2022/11/30 08:46:47;;;;;;;60.55;23.30;;;;;;;;;;4920792;29;20044;-82
2022/11/30 08:49:12;;;;;;;63.70;24.45;;;;;;;;;;4922185;29;20028;-80
2022/11/30 08:51:38;;;;;;;60.05;23.70;;;;;;;;;;4904788;29;20052;-83
2022/11/30 08:54:03;;;;;;;58.35;23.58;;;;;;;;;;4922385;29;20041;-84
2022/11/30 08:56:29;;;;;;;63.63;24.75;;;;;;;;;;4922378;29;20490;-80
2022/11/30 08:58:54;;;;;;;54.55;23.25;;;;;;;;;;4905915;29;20044;-81
2022/11/30 09:01:23;;;;;;;59.33;24.58;;;;;;;;;;4900895;29;20028;-80
2022/11/30 09:03:52;;;;;;;57.53;22.60;;;;;;;;;;4889012;29;20036;-85
2022/11/30 09:06:21;;;;;;;50.75;21.60;;;;;;;;;;4929909;29;20047;-82
2022/11/30 09:08:48;;;;;;;54.03;21.42;;;;;;;;;;4936986;29;20071;-82
2022/11/30 09:11:15;;;;;;;57.10;24.95;;;;;;;;;;4921952;29;20051;-81
2022/11/30 09:13:42;;;;;;;50.60;22.88;;;;;;;;;;4922314;29;20047;-83
2022/11/30 09:16:08;;;;;;;51.55;22.48;;;;;;;;;;4921682;29;20028;-83
2022/11/30 09:18:33;;;;;;;59.00;23.15;;;;;;;;;;4904371;29;20040;-81
2022/11/30 09:21:00;;;;;;;51.13;23.70;;;;;;;;;;4904613;29;20051;-83
2022/11/30 09:23:27;;;;;;;50.95;22.33;;;;;;;;;;4904354;29;20040;-80
2022/11/30 09:26:00;;;;;;;54.88;22.67;;;;;;;;;;4921606;29;20047;-81
2022/11/30 09:28:26;;;;;;;53.70;21.70;;;;;;;;;;4903461;29;20070;-82
2022/11/30 09:31:02;;;;;;;49.78;21.75;;;;;;;;;;4903448;29;20040;-82
2022/11/30 09:33:28;;;;;;;50.17;22.67;;;;;;;;;;4920295;29;20051;-82
2022/11/30 09:35:57;;;;;;;52.20;23.50;;;;;;;;;;4920318;29;20036;-83
2022/11/30 09:38:23;;;;;;;49.38;21.92;;;;;;;;;;4903058;29;20046;-82
2022/11/30 09:41:00;;;;;;;47.47;21.67;;;;;;;;;;4920247;29;20044;-84
2022/11/30 09:43:56;;;;;;;51.78;22.38;;;;;;;;;;4919938;29;20028;-82
2022/11/30 09:46:29;;;;;;;48.28;21.20;;;;;;;;;;4920020;29;20036;-82
2022/11/30 09:49:17;;;;;;;45.17;20.45;;;;;;;;;;4918685;29;20036;-82
2022/11/30 09:51:53;;;;;;;49.97;22.25;;;;;;;;;;4903632;29;20187;-83
2022/11/30 09:54:34;;;;;;;46.80;21.23;;;;;;;;;;4902624;29;20156;-82
2022/11/30 09:57:03;;;;;;;49.17;21.70;;;;;;;;;;4903010;29;20109;-82
2022/11/30 09:59:31;;;;;;;45.10;21.77;;;;;;;;;;4920192;29;20055;-82
2022/11/30 10:02:11;;;;;;;40.92;19.50;;;;;;;;;;4919333;29;20417;-80
2022/11/30 10:04:37;;;;;;;48.45;20.83;;;;;;;;;;4919373;29;20134;-83
2022/11/30 10:07:21;;;;;;;38.78;18.38;;;;;;;;;;4920030;29;20137;-82
2022/11/30 10:10:00;;;;;;;50.45;22.00;;;;;;;;;;4919763;29;20040;-81
2022/11/30 10:12:44;;;;;;;43.08;19.35;;;;;;;;;;4902486;29;20086;-82
2022/11/30 10:15:09;;;;;;;;;;;;;;;;;;4904621;29;20063;-82
2022/11/30 10:17:52;;;;;;;42.33;18.95;;;;;;;;;;4915276;29;20376;-83
2022/11/30 10:20:37;;;;;;;42.42;19.50;;;;;;;;;;4923763;29;20123;-83
2022/11/30 10:23:12;;;;;;;37.78;18.25;;;;;;;;;;4922721;29;20102;-82
2022/11/30 10:26:05;;;;;;;37.45;18.42;;;;;;;;;;4940083;29;20039;-83
2022/11/30 10:28:52;;;;;;;42.65;20.40;;;;;;;;;;4923069;29;20054;-82
2022/11/30 10:31:32;;;;;;;35.60;18.50;;;;;;;;;;4923437;29;20043;-82
2022/11/30 10:34:19;;;;;;;36.20;18.30;;;;;;;;;;4923249;29;20032;-82
2022/11/30 10:36:52;;;;;;;38.95;18.60;;;;;;;;;;4923786;29;20063;-81
2022/11/30 10:39:25;;;;;;;40.17;18.47;;;;;;;;;;4923193;29;20122;-83
2022/11/30 10:41:55;;;;;;;36.42;17.98;;;;;;;;;;4923328;29;20283;-82
2022/11/30 10:44:29;;;;;;;41.78;20.15;;;;;;;;;;4906916;29;20048;-82
2022/11/30 10:47:01;;;;;;;36.10;18.65;;;;;;;;;;4923245;29;20066;-83
2022/11/30 10:49:28;;;;;;;34.42;17.90;;;;;;;;;;4941427;29;20144;-84
2022/11/30 10:52:01;;;;;;;43.97;21.13;;;;;;;;;;4924304;29;20034;-83
2022/11/30 10:54:29;;;;;;;37.63;18.67;;;;;;;;;;4923388;29;20039;-81
2022/11/30 10:56:55;;;;;;;37.33;18.65;;;;;;;;;;4939981;29;20055;-83
2022/11/30 10:59:46;;;;;;;38.55;16.80;;;;;;;;;;4923072;29;20036;-82
2022/11/30 11:02:34;;;;;;;41.22;18.73;;;;;;;;;;4900065;29;20047;-82
2022/11/30 11:05:29;;;;;;;44.67;20.17;;;;;;;;;;4922950;29;20031;-83
2022/11/30 11:07:55;;;;;;;41.10;19.20;;;;;;;;;;4937473;29;20048;-81
2022/11/30 11:10:35;;;;;;;47.55;20.20;;;;;;;;;;4921861;29;20039;-82
2022/11/30 11:13:00;;;;;;;39.13;19.92;;;;;;;;;;4921805;29;20412;-83
2022/11/30 11:15:29;;;;;;;45.45;21.02;;;;;;;;;;4923350;29;20031;-83
2022/11/30 11:18:21;;;;;;;41.13;18.77;;;;;;;;;;4922579;29;20126;-85
2022/11/30 11:20:47;;;;;;;44.55;21.10;;;;;;;;;;4922070;29;20039;-82
2022/11/30 11:23:22;;;;;;;48.95;20.45;;;;;;;;;;4922078;29;20130;-83
2022/11/30 11:25:52;;;;;;;47.22;22.65;;;;;;;;;;4921748;29;20043;-81
2022/11/30 11:28:20;;;;;;;43.88;20.45;;;;;;;;;;4938788;29;20083;-81
2022/11/30 11:30:46;;;;;;;49.03;21.75;;;;;;;;;;4923179;29;20065;-83
2022/11/30 11:33:11;;;;;;;40.75;19.90;;;;;;;;;;4941435;29;20043;-81
2022/11/30 11:35:40;;;;;;;44.10;20.75;;;;;;;;;;4939979;29;20122;-84
2022/11/30 11:38:21;;;;;;;39.80;18.20;;;;;;;;;;4923507;29;20405;-82
2022/11/30 11:40:52;;;;;;;46.08;20.08;;;;;;;;;;4939420;29;20047;-81
2022/11/30 11:43:18;;;;;;;44.65;21.67;;;;;;;;;;4922308;29;20040;-83
2022/11/30 11:45:50;;;;;;;48.45;21.83;;;;;;;;;;4937382;29;20028;-82
2022/11/30 11:48:29;;;;;;;45.65;21.27;;;;;;;;;;4939546;29;20106;-81
2022/11/30 11:51:01;;;;;;;43.05;19.42;;;;;;;;;;4940457;29;20042;-82
2022/11/30 11:53:52;;;;;;;44.88;20.70;;;;;;;;;;4923732;29;20115;-81
2022/11/30 11:56:27;;;;;;;45.42;21.65;;;;;;;;;;4931158;29;20047;-83
2022/11/30 11:59:11;;;;;;;45.42;20.25;;;;;;;;;;4940764;29;20044;-82
2022/11/30 12:01:49;;;;;;;45.38;21.70;;;;;;;;;;4907103;29;20130;-82
2022/11/30 12:04:30;;;;;;;48.65;21.17;;;;;;;;;;4923756;29;20043;-85
2022/11/30 12:06:58;;;;;;;46.58;20.42;;;;;;;;;;4903085;29;20044;-84
2022/11/30 12:09:29;;;;;;;43.83;21.17;;;;;;;;;;4903422;29;20036;-84
2022/11/30 12:11:54;;;;;;;46.90;20.05;;;;;;;;;;4920467;23;21136;-84
2022/11/30 12:14:20;;;;;;;53.20;22.92;;;;;;;;;;4897838;29;20031;-84
2022/11/30 12:17:07;;;;;;;43.05;19.48;;;;;;;;;;4901075;29;20032;-85
2022/11/30 12:19:57;;;;;;;40.95;19.33;;;;;;;;;;4902955;29;20048;-84
2022/11/30 12:22:25;;;;;;;43.83;20.40;;;;;;;;;;4896400;29;20041;-85
2022/11/30 12:25:06;;;;;;;43.63;20.42;;;;;;;;;;4884783;29;20033;-85
2022/11/30 12:27:34;;;;;;;54.45;23.58;;;;;;;;;;4884626;29;20486;-84
2022/11/30 12:30:31;;;;;;;56.42;24.02;;;;;;;;;;4884386;29;20045;-85
2022/11/30 12:33:12;;;;;;;54.65;24.10;;;;;;;;;;4867395;29;20049;-85
2022/11/30 12:36:18;;;;;;;52.72;24.77;;;;;;;;;;4884640;29;20049;-85
2022/11/30 12:38:58;;;;;;;52.13;22.40;;;;;;;;;;4884616;29;20049;-85
2022/11/30 12:41:34;;;;;;;52.20;24.10;;;;;;;;;;4884847;29;20487;-85
2022/11/30 12:44:18;;;;;;;51.05;21.33;;;;;;;;;;4885265;29;20466;-85
2022/11/30 12:47:25;;;;;;;50.97;23.77;;;;;;;;;;4868509;29;20100;-86
2022/11/30 12:50:14;;;;;;;54.38;23.23;;;;;;;;;;4883275;29;20045;-85
2022/11/30 12:53:04;;;;;;;65.32;27.35;;;;;;;;;;4884738;29;20036;-86
2022/11/30 12:55:46;;;;;;;58.78;25.60;;;;;;;;;;4884480;29;20040;-86
2022/11/30 12:58:30;;;;;;;61.00;24.67;;;;;;;;;;4884339;29;20029;-85
2022/11/30 13:01:25;;;;;;;47.85;21.08;;;;;;;;;;4867754;29;20045;-86
2022/11/30 13:03:53;;;;;;;51.67;23.63;;;;;;;;;;4884059;29;20033;-85
2022/11/30 13:06:29;;;;;;;46.60;20.98;;;;;;;;;;4867119;29;20390;-85
2022/11/30 13:09:16;;;;;;;50.13;21.45;;;;;;;;;;4884105;29;20064;-84
2022/11/30 13:11:48;;;;;;;49.30;21.83;;;;;;;;;;4867083;29;20438;-86
2022/11/30 13:14:21;;;;;;;49.97;20.83;;;;;;;;;;4883614;29;20097;-85
2022/11/30 13:16:49;;;;;;;;;;;;;;;;;;4884424;29;20029;-81
2022/11/30 13:19:36;;;;;;;44.45;17.98;;;;;;;;;;4899309;29;19912;-85
2022/11/30 13:22:08;;;;;;;46.17;20.30;;;;;;;;;;4902447;29;20051;-85
2022/11/30 13:24:39;;;;;;;47.30;20.63;;;;;;;;;;4902598;29;20051;-86
2022/11/30 13:27:15;;;;;;;53.58;21.17;;;;;;;;;;4903024;29;20068;-86
2022/11/30 13:30:05;;;;;;;48.92;20.42;;;;;;;;;;4886210;29;20070;-85
2022/11/30 13:32:34;;;;;;;52.47;22.70;;;;;;;;;;4886212;29;20100;-85
2022/11/30 13:35:28;;;;;;;59.92;27.38;;;;;;;;;;4885994;29;20084;-85
2022/11/30 13:38:21;;;;;;;51.00;21.88;;;;;;;;;;4902866;29;20395;-84
2022/11/30 13:41:04;;;;;;;52.83;22.75;;;;;;;;;;4901744;29;20080;-84
2022/11/30 13:43:34;;;;;;;49.45;22.15;;;;;;;;;;4884623;29;20036;-84
2022/11/30 13:46:11;;;;;;;46.95;19.80;;;;;;;;;;4901341;29;20040;-85
2022/11/30 13:48:41;;;;;;;49.42;20.23;;;;;;;;;;4902062;29;20036;-85
2022/11/30 13:51:07;;;;;;;47.65;21.90;;;;;;;;;;4884677;29;20124;-86
2022/11/30 13:53:36;;;;;;;44.38;20.42;;;;;;;;;;4901657;29;20025;-85
2022/11/30 13:56:16;;;;;;;44.50;19.77;;;;;;;;;;4901482;29;20037;-86
2022/11/30 13:59:30;;;;;;;42.03;18.65;;;;;;;;;;4885080;29;20557;-85
2022/11/30 14:02:31;;;;;;;44.08;19.83;;;;;;;;;;4896395;29;20131;-84
2022/11/30 14:05:15;;;;;;;41.42;18.15;;;;;;;;;;4899045;29;20076;-84
2022/11/30 14:07:45;;;;;;;43.00;19.88;;;;;;;;;;4903478;29;20081;-83
2022/11/30 14:10:35;;;;;;;41.08;18.92;;;;;;;;;;4902893;29;20025;-84
2022/11/30 14:13:04;;;;;;;42.15;19.17;;;;;;;;;;4885012;29;20033;-82
2022/11/30 14:15:40;;;;;;;42.05;18.55;;;;;;;;;;4900082;29;20041;-84
2022/11/30 14:18:09;;;;;;;45.35;19.30;;;;;;;;;;4886850;29;20037;-84
2022/11/30 14:20:41;;;;;;;43.33;19.60;;;;;;;;;;4901705;29;20086;-85
2022/11/30 14:23:17;;;;;;;49.30;23.37;;;;;;;;;;4884149;29;20036;-86
2022/11/30 14:25:49;;;;;;;51.85;23.45;;;;;;;;;;4899871;29;20344;-85
2022/11/30 14:28:20;;;;;;;74.40;34.38;;;;;;;;;;4883284;29;20096;-84
2022/11/30 14:30:50;;;;;;;52.30;24.83;;;;;;;;;;4870335;29;20048;-84
2022/11/30 14:33:24;;;;;;;53.90;24.80;;;;;;;;;;4883398;29;20111;-85
2022/11/30 14:35:55;;;;;;;66.47;27.10;;;;;;;;;;4900527;29;20036;-86
2022/11/30 14:38:28;;;;;;;51.05;22.77;;;;;;;;;;4899251;29;20040;-85
2022/11/30 14:40:54;;;;;;;55.13;23.95;;;;;;;;;;4899831;29;20490;-85